Terminal Aerodrome Forecast
Issued by NWS

Home | Current Version | Previous Version | Text Only | Print | Product List | Glossary On
Versions: 1 2 3 4 5 6 7 8 9 10 11 12 13 14 15 16 17 18 19 20 21 22 23 24
000
FTUS42 KGSP 182300
TAFGMU
TAF
KGMU 182334Z 1900/1924 08006KT P6SM SCT110
     FM190500 03004KT 6SM BR BKN026
     FM190700 03004KT 5SM BR BKN017
     FM191100 04005KT 6SM BR BKN009
     FM191400 06005KT P6SM BKN013
     FM191700 08006KT P6SM BKN022
     FM192100 08007KT P6SM BKN035=

USA.gov is the U.S. government's official web portal to all federal, state and local government web resources and services.